Flight Track Log - Related Links

Times and Time Zones

All times are in EDT time to prevent confusion due to time zone crossing. See the N588AC flight status page for this flight to view local times or setup timezone preferences in your user account.

Time Position Orientation Groundspeed Altitude Reporting Facility
EDT Latitude Longitude Course Direction KTS MPH feet Rate Location/Type
Sun 07:35:25 PM 41.5253 -81.6703 54° Northeast 162 186 1,400  Level Cleveland Center
Sun 07:36:25 PM 41.5572 -81.6125 54° Northeast 196 226 2,500 970 Climbing Cleveland Center
Sun 07:37:04 PM 41.5764 -81.5769 54° Northeast 225 259 3,000 787 Climbing Cleveland Center
Sun 07:37:26 PM 41.5744 -81.5381 94° East 247 284 3,300 1,100 Climbing Cleveland Center
Sun 07:38:04 PM 41.5392 -81.5264 166° South 228 262 4,100 1,837 Climbing Cleveland Center
Sun 07:39:04 PM 41.4744 -81.5336 185° South 235 270 6,300 2,533 Climbing Cleveland Center
Sun 07:41:04 PM 41.3378 -81.6617 215° Southwest 281 323 11,700 2,667 Climbing Cleveland Center
Sun 07:42:04 PM 41.2664 -81.7186 211° Southwest 300 345 14,300 2,600 Climbing Cleveland Center
Sun 07:43:04 PM 41.1947 -81.7861 215° Southwest 312 359 16,900 1,950 Climbing Cleveland Center
Sun 07:44:04 PM 41.1358 -81.8375 213° Southwest 317 365 18,200 2,050 Climbing Cleveland Center
Sun 07:45:04 PM 41.0497 -81.9103 213° Southwest 332 382 21,000 2,550 Climbing Cleveland Center
Sun 07:46:04 PM 40.9778 -81.9803 216° Southwest 327 376 23,300 2,150 Climbing Cleveland Center
Sun 07:47:04 PM 40.9042 -82.0500 216° Southwest 327 376 25,300 1,800 Climbing Cleveland Center
Sun 07:48:04 PM 40.8158 -82.1086 207° Southwest 327 376 26,900 1,788 Climbing Cleveland Center
Sun 07:49:35 PM 40.6925 -82.1831 205° Southwest 339 390 29,800 1,934 Climbing Indianapolis Center
Sun 07:50:36 PM 40.6133 -82.2389 208° Southwest 325 374 31,800 1,659 Climbing Indianapolis Center
Sun 07:51:38 PM 40.5311 -82.2753 199° South 325 374 33,200 581 Climbing Indianapolis Center
Sun 07:52:40 PM 40.4331 -82.2400 165° South 362 417 33,000 -98 Descending Indianapolis Center
Sun 07:53:41 PM 40.3322 -82.1883 159° South 382 440 33,000  Level Indianapolis Center
Sun 07:54:43 PM 40.2228 -82.1214 155° Southeast 389 448 33,000  Level Indianapolis Center
Sun 07:55:44 PM 40.1306 -82.0367 145° Southeast 401 461 33,000 49 Level Indianapolis Center
Sun 07:56:46 PM 40.0331 -81.9689 152° Southeast 394 453 33,100  Climbing Indianapolis Center
Sun 07:57:48 PM 39.9317 -81.9133 157° South 391 450 33,000 -49 Descending Indianapolis Center
Sun 07:58:49 PM 39.8303 -81.8592 158° South 389 448 33,000  Level Indianapolis Center
Sun 07:59:51 PM 39.7289 -81.8050 158° South 389 448 33,000  Level Indianapolis Center
Sun 08:00:53 PM 39.6242 -81.7378 154° Southeast 395 455 33,000 49 Level Indianapolis Center
Sun 08:01:54 PM 39.5231 -81.6822 157° South 392 451 33,100  Climbing Indianapolis Center
Sun 08:02:56 PM 39.4261 -81.6233 155° Southeast 385 443 33,000 -49 Descending Indianapolis Center
Sun 08:03:57 PM 39.3281 -81.5656 155° Southeast 386 444 33,000  Level Indianapolis Center
Sun 08:04:59 PM 39.2306 -81.5081 155° Southeast 383 441 33,000 49 Level Indianapolis Center
Sun 08:06:00 PM 39.1144 -81.4403 156° South 380 437 33,100  Climbing Indianapolis Center
Sun 08:07:02 PM 39.0156 -81.3919 159° South 377 434 33,000  Descending Indianapolis Center
Sun 08:08:03 PM 38.9169 -81.3408 158° South 378 435 33,100 -244 Climbing Indianapolis Center
Sun 08:09:05 PM 38.8203 -81.2800 154° Southeast 380 437 32,500 -1,122 Descending Indianapolis Center
Sun 08:10:06 PM 38.7228 -81.2286 158° South 373 429 30,800 -1,610 Descending Indianapolis Center
Sun 08:11:08 PM 38.6253 -81.1769 158° South 374 430 29,200 -1,707 Descending Indianapolis Center
Sun 08:12:09 PM 38.5286 -81.1236 157° South 374 430 27,300 -1,902 Descending Indianapolis Center
Sun 08:13:11 PM 38.4328 -81.0686 156° South 376 433 25,300 -1,805 Descending Indianapolis Center
Sun 08:14:12 PM 38.3369 -81.0119 155° Southeast 380 437 23,600 -1,800 Descending Indianapolis Center
Sun 08:14:41 PM 38.2833 -80.9908 163° South 384 442 22,600 -1,820 Descending Washington Center
Sun 08:15:41 PM 38.1894 -80.9444 159° South 378 435 20,900 -1,750 Descending Washington Center
Sun 08:16:41 PM 38.1000 -80.8931 156° South 367 422 19,100 -1,450 Descending Washington Center
Sun 08:17:41 PM 38.0264 -80.8536 157° South 339 390 18,000 -1,300 Descending Washington Center
Sun 08:18:41 PM 37.9472 -80.8086 156° South 325 374 16,500 -1,361 Descending Washington Center
Sun 08:19:40 PM 37.8717 -80.7692 158° South 314 361 15,300 -1,361 Descending Washington Center
Sun 08:20:40 PM 37.7964 -80.7272 156° South 303 349 13,800 -1,587 Descending Washington Center
Sun 08:21:41 PM 37.7150 -80.6797 155° Southeast 298 343 12,100 -1,488 Descending Washington Center
Sun 08:22:41 PM 37.6414 -80.6406 157° South 298 343 10,800 -1,300 Descending Washington Center
Sun 08:23:41 PM 37.5681 -80.6017 157° South 293 337 9,500 -1,300 Descending Washington Center
Sun 08:24:41 PM 37.5047 -80.5661 156° South 288 331 8,200 -1,350 Descending Washington Center
Sun 08:25:41 PM 37.4328 -80.5431 166° South 282 325 6,800 -1,261 Descending Washington Center
Sun 08:26:40 PM 37.3600 -80.5383 177° South 277 319 5,700 -900 Descending Washington Center
Sun 08:27:41 PM 37.2911 -80.5389 180° South 261 300 5,000 -942 Descending Washington Center
Sun 08:28:41 PM 37.2447 -80.4994 146° Southeast 201 231 3,800 -1,100 Descending Washington Center
Sun 08:29:41 PM 37.2236 -80.4539 120° Southeast 165 190 2,800 -550 Descending Washington Center
Sun 08:30:41 PM 37.1914 -80.4231 143° Southeast 159 183 2,700 -100 Descending Washington Center

Login

Don't have an account? Register now (free) for customized features, flight alerts, and more!